M I D A S
Marine Information and Data Acquisition System
Tripno 2058 of the Zeeleeuw from 2011-03-15 07:59:48 to 2011-03-15 15:20:23
Back to CruiseResearch ActivitiesStationsMapUnderway DataData graphs

EquipmentUnitsComment
TimeDGPSUTC
LatitudeDGPSDM.mWGS84
LongitudeDGPSDM.mWGS84
TemperatureSBE03/SBE38deg celciusITS90
ConductivitySBE21S/mITS90
SalinitySBE21 Practical Salinity Units
ChlorophylAChelsea fluorimeterg/lCalibrated in Aceton
Missing or incorrect values are displayed as -999
Sea surface data collected by the RV Zeeleeuw from 2011-03-15 07:57:52 to 2011-03-15 15:27:58
Time Latitude Longitude Temperature Conductivity Salinity ChlorophylA
2011-03-15 07:58:57 51°13.662 2°55.961 14.2383 0.064816 0.376355 -3.020363
2011-03-15 07:59:56 51°13.661 2°55.961 14.2516 0.064919 0.376979 -3.020363
2011-03-15 08:00:57 51°13.669 2°55.927 14.2468 0.064816 0.376369 -3.020363
2011-03-15 08:01:58 51°13.688 2°55.832 14.3151 0.064919 0.376979 -3.020363
2011-03-15 08:02:58 51°13.697 2°55.737 14.2906 0.064919 0.377016 -3.020363
2011-03-15 08:03:56 51°13.706 2°55.731 14.3243 0.064816 0.376283 -3.020363
2011-03-15 08:04:55 51°13.705 2°55.732 14.3392 0.064816 0.376391 -3.020363
2011-03-15 08:05:57 51°13.747 2°55.701 14.2987 0.064816 0.376406 -3.020363
2011-03-15 08:06:55 51°13.872 2°55.608 14.1514 0.064816 0.376449 -3.020363
2011-03-15 08:07:54 51°14.021 2°55.498 14.2066 0.064816 0.376471 -3.020363
2011-03-15 08:08:54 51°14.18 2°55.379 14.3154 0.064816 0.376492 -3.020363
2011-03-15 08:09:55 51°14.343 2°55.229 14.2833 0.064816 0.376507 -3.020363
2011-03-15 08:10:54 51°14.51 2°55.051 14.2169 0.064816 0.376536 -3.020363
2011-03-15 08:11:54 51°14.692 2°54.865 14.1516 0.064816 0.37655 -3.020363
2011-03-15 08:12:54 51°14.867 2°54.667 14.1043 0.064816 0.376579 -3.020363
2011-03-15 08:13:54 51°15.034 2°54.451 14.0796 0.064816 0.376572 -3.020363
2011-03-15 08:14:54 51°15.2 2°54.228 14.0946 0.064816 0.376564 -3.020363
2011-03-15 08:15:54 51°15.369 2°54.01 14.0429 0.064816 0.376564 -3.020363
2011-03-15 08:16:54 51°15.541 2°53.801 14.0468 0.064816 0.376557 -3.020363
2011-03-15 08:17:54 51°15.714 2°53.595 14.0493 0.064816 0.376543 -3.020363
2011-03-15 08:18:54 51°15.895 2°53.406 14.0443 0.064816 0.376528 -3.020363
2011-03-15 08:19:54 51°16.091 2°53.253 14.0323 0.064816 0.376528 -3.020363
2011-03-15 08:20:54 51°16.288 2°53.098 14.004 0.064816 0.376557 -3.020363
2011-03-15 08:21:54 51°16.485 2°52.942 13.9824 0.064816 0.376579 -3.020363
2011-03-15 08:22:54 51°16.682 2°52.788 6.6577 3.37551 29.278674 -3.020363
2011-03-15 08:23:54 51°16.877 2°52.632 6.1941 3.204808 31.408589 -3.020363
2011-03-15 08:24:54 51°17.076 2°52.486 6.1472 3.163634 31.38862 -3.020363
2011-03-15 08:25:54 51°17.277 2°52.341 6.048 3.149669 31.36327 -3.020363
2011-03-15 08:26:54 51°17.478 2°52.19 6.0435 3.146152 31.361854 -3.020363
2011-03-15 08:27:54 51°17.68 2°52.042 5.9554 3.14367 31.381451 -3.020363
2011-03-15 08:28:54 51°17.879 2°51.893 5.8977 3.150188 31.545454 -3.020363
2011-03-15 08:29:54 51°18.078 2°51.748 5.8783 3.151637 31.617886 -3.020363
2011-03-15 08:30:54 51°18.277 2°51.599 5.8753 3.143878 31.542317 -3.020363
2011-03-15 08:31:54 51°18.477 2°51.451 5.8693 3.139223 31.507351 -3.020363
2011-03-15 08:32:54 51°18.678 2°51.302 5.8623 3.144189 31.570447 -3.020363
2011-03-15 08:33:54 51°18.88 2°51.155 5.8612 3.138189 31.510829 -3.020363
2011-03-15 08:34:54 51°19.083 2°51.005 5.8651 3.136533 31.489797 -3.020363
2011-03-15 08:35:54 51°19.284 2°50.852 5.856 3.135602 31.485614 -3.020363
2011-03-15 08:36:54 51°19.487 2°50.697 5.8513 3.13374 31.480767 -3.020363
2011-03-15 08:37:54 51°19.689 2°50.543 5.8565 3.128775 31.425577 -3.020363
2011-03-15 08:38:54 51°19.89 2°50.384 5.86 3.126809 31.404614 -3.020363
2011-03-15 08:39:54 51°20.094 2°50.24 5.8626 3.13043 31.438696 -3.020363
2011-03-15 08:40:54 51°20.321 2°50.214 5.856 3.149776 31.65465 -3.020363
2011-03-15 08:41:54 51°20.548 2°50.205 5.8294 3.151121 31.684675 -3.020363
2011-03-15 08:42:54 51°20.776 2°50.193 5.8205 3.156604 31.76526 -3.020363
2011-03-15 08:43:54 51°21.006 2°50.191 5.7919 3.148845 31.693939 -3.020363
2011-03-15 08:44:54 51°21.233 2°50.176 5.7758 3.137155 31.583217 -3.020363
2011-03-15 08:45:54 51°21.441 2°50.049 5.7781 3.1355 31.582487 -3.020363
2011-03-15 08:46:54 51°21.626 2°49.852 5.7789 3.137879 31.609009 -3.020363
2011-03-15 08:47:54 51°21.808 2°49.647 5.8152 3.14181 31.641295 -3.020363
2011-03-15 08:48:54 51°21.969 2°49.406 5.8441 3.146672 31.655549 -3.020363
2011-03-15 08:49:54 51°22.126 2°49.157 5.8527 3.155673 31.735338 -3.020363
2011-03-15 08:50:54 51°22.273 2°48.896 5.8752 3.166743 31.838097 -3.020363
2011-03-15 08:51:54 51°22.392 2°48.607 5.9372 3.175951 31.915608 -3.020363
2011-03-15 08:52:54 51°22.502 2°48.315 5.9598 3.207404 32.221683 -3.020363
2011-03-15 08:53:54 51°22.615 2°48.026 5.9474 3.222303 32.37307 -3.020363
2011-03-15 08:54:54 51°22.725 2°47.736 5.9344 3.219199 32.352964 -3.020363
2011-03-15 08:55:54 51°22.829 2°47.438 5.9031 3.211646 32.285105 -3.020363
2011-03-15 08:56:54 51°22.925 2°47.137 5.8807 3.205852 32.244005 -3.020363
2011-03-15 08:57:54 51°23.021 2°46.835 5.9075 3.207715 32.278281 -3.020363
2011-03-15 08:58:54 51°23.127 2°46.542 5.9102 3.223235 32.433193 -3.020363
2011-03-15 08:59:54 51°23.235 2°46.247 5.9274 3.232961 32.525283 -3.020363
2011-03-15 09:00:54 51°23.343 2°45.952 5.9165 3.238445 32.579142 -3.020363
2011-03-15 09:01:54 51°23.452 2°45.654 5.927 3.233789 32.538145 -3.020363
2011-03-15 09:02:54 51°23.56 2°45.356 5.9495 3.242584 32.625284 -3.020363
2011-03-15 09:03:54 51°23.681 2°45.068 5.9662 3.25407 32.734186 -3.020363
2011-03-15 09:04:54 51°23.799 2°44.778 5.9914 3.263176 32.8165 -3.020363
2011-03-15 09:05:54 51°23.906 2°44.48 6.0265 3.27787 32.947277 -3.020363
2011-03-15 09:06:54 51°24.008 2°44.178 6.0474 3.289978 33.05277 -3.020363
2011-03-15 09:07:54 51°24.131 2°43.899 6.0422 3.292461 33.075835 -3.020363
2011-03-15 09:08:54 51°24.314 2°43.709 6.0722 3.295048 33.096368 -3.020363
2011-03-15 09:09:54 51°24.449 2°43.681 6.084 3.302913 33.16092 -3.020363
2011-03-15 09:10:54 51°24.525 2°43.693 6.0828 3.306432 33.192718 -3.020363
2011-03-15 09:11:54 51°24.58 2°43.709 6.0862 3.306535 33.192947 -3.020363
2011-03-15 09:12:54 51°24.626 2°43.722 6.0902 3.306949 33.196634 -3.020363
2011-03-15 09:13:54 51°24.665 2°43.724 6.0956 3.308087 33.206539 -3.020363
2011-03-15 09:14:54 51°24.685 2°43.724 6.0919 3.310157 33.222197 -3.020363
2011-03-15 09:15:54 51°24.703 2°43.725 6.1016 3.310157 33.224043 -3.020363
2011-03-15 09:16:54 51°24.718 2°43.727 6.0957 3.310468 33.222884 -3.020363
2011-03-15 09:17:54 51°24.704 2°43.729 6.0899 3.30995 33.220816 -3.020363
2011-03-15 09:18:54 51°24.673 2°43.76 6.089 3.308915 33.212987 -3.020363
2011-03-15 09:19:54 51°24.664 2°43.786 6.0865 3.308087 33.206539 -3.020363
2011-03-15 09:20:54 51°24.672 2°43.73 6.0887 3.307881 33.208849 -3.020363
2011-03-15 09:21:54 51°24.678 2°43.72 6.0872 3.307053 33.195018 -3.020363
2011-03-15 09:22:54 51°24.682 2°43.713 6.0848 3.306535 33.19387 -3.020363
2011-03-15 09:23:54 51°24.685 2°43.712 6.088 3.306018 33.189954 -3.020363
2011-03-15 09:24:54 51°24.687 2°43.714 6.0852 3.307156 33.202629 -3.020363
2011-03-15 09:25:54 51°24.677 2°43.722 6.086 3.307156 33.203552 -3.020363
2011-03-15 09:26:54 51°24.66 2°43.722 6.0905 3.307674 33.206544 -3.020363
2011-03-15 09:27:54 51°24.655 2°43.722 6.0885 3.308812 33.21645 -3.020363
2011-03-15 09:28:54 51°24.654 2°43.726 6.0859 3.308812 33.21645 -3.020363
2011-03-15 09:29:54 51°24.656 2°43.731 6.0858 3.307363 33.205856 -3.020363
2011-03-15 09:30:54 51°24.655 2°43.737 6.0822 3.306535 33.198483 -3.020363
2011-03-15 09:31:54 51°24.647 2°43.737 6.0876 3.306225 33.194104 -3.020363
2011-03-15 09:32:54 51°24.657 2°43.742 6.0826 3.306432 33.195485 -3.020363
2011-03-15 09:33:54 51°24.666 2°43.738 6.0811 3.306225 33.198717 -3.020363
2011-03-15 09:34:54 51°24.66 2°43.717 6.0887 3.306328 33.196179 -3.020363
2011-03-15 09:35:54 51°24.657 2°43.707 6.0822 3.306535 33.194792 -3.020363
2011-03-15 09:36:54 51°24.659 2°43.707 6.0811 3.306121 33.195719 -3.020363
2011-03-15 09:37:54 51°24.664 2°43.71 6.0891 3.305914 33.193415 -3.020363
2011-03-15 09:38:54 51°24.671 2°43.715 6.133 3.306742 33.186029 -3.020363
2011-03-15 09:39:54 51°24.676 2°43.722 6.1505 3.310467 33.18417 -3.020363
2011-03-15 09:40:54 51°24.681 2°43.729 6.1491 3.311088 33.191073 -3.020363
2011-03-15 09:41:54 51°24.687 2°43.736 6.1659 3.311502 33.183707 -3.020363
2011-03-15 09:42:54 51°24.692 2°43.743 6.1505 3.312537 33.191527 -3.020363
2011-03-15 09:43:54 51°24.698 2°43.75 6.1286 3.311709 33.188769 -3.020363
2011-03-15 09:44:54 51°24.694 2°43.758 6.0966 3.310674 33.183709 -3.020363
2011-03-15 09:45:54 51°24.674 2°43.751 6.0781 3.306742 33.191562 -3.020363
2011-03-15 09:46:54 51°24.66 2°43.72 6.0772 3.30519 33.188116 -3.020363
2011-03-15 09:47:54 51°24.657 2°43.702 6.0745 3.304879 33.185581 -3.020363
2011-03-15 09:48:54 51°24.659 2°43.699 6.0747 3.304362 33.182586 -3.020363
2011-03-15 09:49:54 51°24.663 2°43.704 6.0702 3.304155 33.178437 -3.020363
2011-03-15 09:50:54 51°24.67 2°43.71 6.1121 3.302603 33.168528 -3.020363
2011-03-15 09:51:54 51°24.677 2°43.717 6.1472 3.306431 33.156782 -3.020363
2011-03-15 09:52:54 51°24.682 2°43.724 6.119 3.307984 33.166681 -3.020363
2011-03-15 09:53:54 51°24.688 2°43.731 6.1146 3.306638 33.163686 -3.020363
2011-03-15 09:54:54 51°24.694 2°43.737 6.1496 3.30788 33.15173 -3.020363
2011-03-15 09:55:54 51°24.7 2°43.741 6.1094 3.307156 33.162997 -3.020363
2011-03-15 09:56:54 51°24.707 2°43.747 6.1064 3.306017 33.154019 -3.020363
2011-03-15 09:57:54 51°24.702 2°43.762 6.0793 3.305086 33.150102 -3.020363
2011-03-15 09:58:55 51°24.692 2°43.85 6.0673 3.301982 33.158846 -3.020363
2011-03-15 09:59:54 51°24.778 2°43.969 6.0793 3.302292 33.16507 -3.020363
2011-03-15 10:00:54 51°24.939 2°44.102 6.0866 3.304776 33.17705 -3.020363
2011-03-15 10:01:54 51°25.161 2°44.13 6.108 3.307156 33.197093 -3.020363
2011-03-15 10:02:54 51°25.391 2°44.156 6.0996 3.311089 33.225181 -3.020363
2011-03-15 10:03:55 51°25.626 2°44.185 6.099 3.310882 33.229338 -3.020363
2011-03-15 10:04:54 51°25.851 2°44.237 6.1269 3.311813 33.233243 -3.020363
2011-03-15 10:05:54 51°26.06 2°44.402 6.1409 3.320713 33.30272 -3.020363
2011-03-15 10:06:54 51°26.218 2°44.677 6.1551 3.322783 33.315577 -3.020363
2011-03-15 10:07:54 51°26.367 2°44.969 6.1642 3.325784 33.338787 -3.020363
2011-03-15 10:08:54 51°26.535 2°45.234 6.1707 3.327129 33.3482 -3.020363
2011-03-15 10:09:54 51°26.702 2°45.499 6.1898 3.334477 33.412314 -3.020363
2011-03-15 10:10:55 51°26.879 2°45.754 6.1975 3.334788 33.406508 -3.020363
2011-03-15 10:11:54 51°27.066 2°45.97 6.2059 3.337789 33.432458 -3.020363
2011-03-15 10:12:54 51°27.254 2°46.193 6.2034 3.34048 33.455877 -3.020363
2011-03-15 10:13:54 51°27.444 2°46.415 6.2208 3.341825 33.471755 -3.020363
2011-03-15 10:14:54 51°27.635 2°46.631 6.2284 3.346689 33.507261 -3.020363
2011-03-15 10:15:54 51°27.824 2°46.851 6.2188 3.350726 33.55025 -3.020363
2011-03-15 10:16:54 51°28.018 2°47.069 6.199 3.341618 33.464821 -3.020363
2011-03-15 10:17:54 51°28.207 2°47.299 6.1802 3.33634 33.420985 -3.020363
2011-03-15 10:18:54 51°28.396 2°47.532 6.1714 3.330855 33.377599 -3.020363
2011-03-15 10:19:54 51°28.586 2°47.76 6.18 3.330234 33.373471 -3.020363
2011-03-15 10:20:54 51°28.774 2°47.993 6.1901 3.327854 33.349782 -3.020363
2011-03-15 10:21:54 51°28.962 2°48.225 6.1797 3.337064 33.434593 -3.020363
2011-03-15 10:22:54 51°29.145 2°48.469 6.1693 3.332407 33.389305 -3.020363
2011-03-15 10:23:54 51°29.32 2°48.728 6.1536 3.328164 33.354158 -3.020363
2011-03-15 10:24:54 51°29.497 2°48.984 6.1345 3.318953 33.27484 -3.020363
2011-03-15 10:25:54 51°29.674 2°49.239 6.1373 3.316263 33.252299 -3.020363
2011-03-15 10:26:54 51°29.851 2°49.496 6.1526 3.305603 33.153096 -3.020363
2011-03-15 10:27:54 51°30.027 2°49.751 6.1744 3.32361 33.313697 -3.020363
2011-03-15 10:28:54 51°30.203 2°50.006 6.1941 3.32537 33.323095 -3.020363
2011-03-15 10:29:54 51°30.381 2°50.257 6.1666 3.329095 33.356192 -3.020363
2011-03-15 10:30:54 51°30.552 2°50.518 6.1524 3.317608 33.247889 -3.020363
2011-03-15 10:31:54 51°30.682 2°50.831 6.1364 3.309018 33.172665 -3.020363
2011-03-15 10:32:54 51°30.812 2°51.147 6.0356 3.299187 33.100121 -3.020363
2011-03-15 10:33:54 51°30.946 2°51.461 5.9985 3.265452 32.797981 -3.020363
2011-03-15 10:34:54 51°31.08 2°51.772 5.9914 3.256864 32.725162 -3.020363
2011-03-15 10:35:54 51°31.176 2°51.999 5.9712 3.258933 32.752774 -3.020363
2011-03-15 10:36:54 51°31.234 2°52.14 5.9601 3.237928 32.543394 -3.020363
2011-03-15 10:37:54 51°31.263 2°52.327 5.96 3.235134 32.522261 -3.020363
2011-03-15 10:38:54 51°31.282 2°52.507 5.9608 3.229857 32.463489 -3.020363
2011-03-15 10:39:54 51°31.285 2°52.579 5.9682 3.232237 32.489992 -3.020363
2011-03-15 10:40:54 51°31.299 2°52.591 5.9924 3.253656 32.706758 -3.020363
2011-03-15 10:41:54 51°31.31 2°52.598 5.9632 3.244446 32.607818 -3.020363
2011-03-15 10:42:54 51°31.319 2°52.603 5.9666 3.228305 32.445301 -3.020363
2011-03-15 10:43:54 51°31.322 2°52.611 5.9633 3.225718 32.412884 -3.020363
2011-03-15 10:44:54 51°31.318 2°52.621 5.9606 3.226132 32.421108 -3.020363
2011-03-15 10:45:54 51°31.312 2°52.63 5.959 3.225821 32.419461 -3.020363
2011-03-15 10:46:54 51°31.307 2°52.637 5.9651 3.223648 32.393462 -3.020363
2011-03-15 10:47:54 51°31.302 2°52.64 5.9631 3.224787 32.403421 -3.020363
2011-03-15 10:48:54 51°31.3 2°52.639 5.9706 3.227373 32.431314 -3.020363
2011-03-15 10:49:54 51°31.299 2°52.639 5.9776 3.237514 32.538785 -3.020363
2011-03-15 10:50:54 51°31.3 2°52.639 5.9795 3.235858 32.513095 -3.020363
2011-03-15 10:51:54 51°31.302 2°52.639 5.9738 3.23027 32.453612 -3.020363
2011-03-15 10:52:54 51°31.304 2°52.638 5.9745 3.229546 32.448265 -3.020363
2011-03-15 10:53:54 51°31.305 2°52.638 5.9815 3.231616 32.46768 -3.020363
2011-03-15 10:54:54 51°31.305 2°52.639 5.9873 3.231822 32.462742 -3.020363
2011-03-15 10:55:54 51°31.304 2°52.638 5.9886 3.231409 32.456326 -3.020363
2011-03-15 10:56:54 51°31.303 2°52.638 5.9871 3.232857 32.469732 -3.020363
2011-03-15 10:57:54 51°31.301 2°52.639 5.9877 3.232754 32.469485 -3.020363
2011-03-15 10:58:54 51°31.299 2°52.639 5.9915 3.234823 32.49161 -3.020363
2011-03-15 10:59:54 51°31.301 2°52.638 5.9919 3.234823 32.488893 -3.020363
2011-03-15 11:00:54 51°31.303 2°52.638 5.9919 3.233374 32.471869 -3.020363
2011-03-15 11:01:54 51°31.305 2°52.637 5.9958 3.233892 32.47672 -3.020363
2011-03-15 11:02:54 51°31.305 2°52.636 5.9973 3.234099 32.475403 -3.020363
2011-03-15 11:03:54 51°31.305 2°52.636 6.0003 3.233892 32.4731 -3.020363
2011-03-15 11:04:55 51°31.304 2°52.636 6.0017 3.235651 32.489955 -3.020363
2011-03-15 11:05:55 51°31.305 2°52.636 6.008 3.235444 32.484033 -3.020363
2011-03-15 11:06:54 51°31.306 2°52.636 6.0113 3.235961 32.485263 -3.020363
2011-03-15 11:07:55 51°31.306 2°52.635 6.0163 3.237513 32.498906 -3.020363
2011-03-15 11:08:54 51°31.305 2°52.636 6.021 3.238858 32.50753 -3.020363
2011-03-15 11:09:55 51°31.305 2°52.637 6.0258 3.240307 32.520924 -3.020363
2011-03-15 11:10:55 51°31.304 2°52.637 6.0311 3.241445 32.528148 -3.020363
2011-03-15 11:11:54 51°31.304 2°52.638 6.0366 3.240928 32.518774 -3.020363
2011-03-15 11:12:54 51°31.304 2°52.638 6.0383 3.240928 32.514249 -3.020363
2011-03-15 11:13:54 51°31.304 2°52.638 6.0457 3.241859 32.520076 -3.020363
2011-03-15 11:14:54 51°31.3 2°52.633 6.0527 3.243411 32.530992 -3.020363
2011-03-15 11:15:54 51°31.291 2°52.623 6.0603 3.246101 32.55546 -3.020363
2011-03-15 11:16:54 51°31.287 2°52.61 6.0669 3.247964 32.568913 -3.020363
2011-03-15 11:17:54 51°31.288 2°52.603 6.0683 3.24993 32.585323 -3.020363
2011-03-15 11:18:54 51°31.289 2°52.603 6.0693 3.250137 32.585811 -3.020363
2011-03-15 11:19:54 51°31.272 2°52.578 6.102 3.255932 32.645664 -3.020363
2011-03-15 11:20:55 51°31.302 2°52.494 6.0998 3.264003 32.713543 -3.020363
2011-03-15 11:21:54 51°31.397 2°52.51 6.096 3.259346 32.65547 -3.020363
2011-03-15 11:22:55 51°31.503 2°52.646 6.0891 3.265348 32.726669 -3.020363
2011-03-15 11:23:55 51°31.615 2°52.795 6.0624 3.267418 32.761493 -3.020363
2011-03-15 11:24:55 51°31.728 2°52.949 6.0556 3.253655 32.63307 -3.020363
2011-03-15 11:25:55 51°31.839 2°53.107 6.0351 3.264831 32.763701 -3.020363
2011-03-15 11:26:55 51°31.951 2°53.266 6.0465 3.251586 32.630033 -3.020363
2011-03-15 11:27:55 51°32.063 2°53.426 6.0338 3.244342 32.540437 -3.020363
2011-03-15 11:28:55 51°32.175 2°53.587 6.0137 3.242376 32.536692 -3.020363
2011-03-15 11:29:55 51°32.288 2°53.75 6.0166 3.231201 32.424198 -3.020363
2011-03-15 11:30:55 51°32.4 2°53.913 6.0127 3.233478 32.445893 -3.020363
2011-03-15 11:31:55 51°32.519 2°54.062 5.9789 3.248378 32.622507 -3.020363
2011-03-15 11:32:55 51°32.638 2°54.211 5.9909 3.230063 32.441358 -3.020363
2011-03-15 11:33:55 51°32.757 2°54.363 6.0261 3.23472 32.481405 -3.020363
2011-03-15 11:34:55 51°32.876 2°54.513 6.0763 3.253552 32.658261 -3.020363
2011-03-15 11:35:55 51°32.991 2°54.666 6.1091 3.277145 32.860494 -3.020363
2011-03-15 11:36:55 51°33.101 2°54.826 6.1238 3.284492 32.927542 -3.020363
2011-03-15 11:37:55 51°33.197 2°55.006 6.1259 3.292771 33.003996 -3.020363
2011-03-15 11:38:55 51°33.268 2°55.21 6.1221 3.297531 33.056907 -3.020363
2011-03-15 11:39:55 51°33.294 2°55.406 6.1147 3.297738 33.062879 -3.020363
2011-03-15 11:40:55 51°33.286 2°55.546 6.1047 3.295876 33.055935 -3.020363
2011-03-15 11:41:55 51°33.264 2°55.657 6.1065 3.295255 33.04903 -3.020363
2011-03-15 11:42:55 51°33.251 2°55.737 6.1211 3.297635 33.075501 -3.020363
2011-03-15 11:43:55 51°33.248 2°55.791 6.1135 3.298359 33.072536 -3.020363
2011-03-15 11:44:55 51°33.247 2°55.829 6.1059 3.298773 33.083569 -3.020363
2011-03-15 11:45:55 51°33.247 2°55.856 6.1113 3.298877 33.092071 -3.020363
2011-03-15 11:46:54 51°33.249 2°55.875 6.1187 3.297531 33.069758 -3.020363
2011-03-15 11:47:55 51°33.251 2°55.888 6.167 3.299497 33.070504 -3.020363
2011-03-15 11:48:54 51°33.234 2°55.945 6.1197 3.301877 33.077685 -3.020363
2011-03-15 11:49:55 51°33.126 2°55.976 6.1331 3.301981 33.11741 -3.020363
2011-03-15 11:50:54 51°33.069 2°56.082 6.1434 3.304568 33.125032 -3.020363
2011-03-15 11:51:54 51°33.113 2°56.165 6.1465 3.302913 33.114896 -3.020363
2011-03-15 11:52:55 51°33.158 2°56.174 6.1545 3.30312 33.108927 -3.020363
2011-03-15 11:53:55 51°33.189 2°56.166 6.1461 3.304154 33.125026 -3.020363
2011-03-15 11:54:55 51°33.215 2°56.152 6.1468 3.303327 33.116741 -3.020363
2011-03-15 11:55:54 51°33.235 2°56.135 6.1552 3.303223 33.113753 -3.020363
2011-03-15 11:56:55 51°33.25 2°56.125 6.1519 3.303326 33.112146 -3.020363
2011-03-15 11:57:54 51°33.261 2°56.119 6.1504 3.30374 33.119505 -3.020363
2011-03-15 11:58:55 51°33.261 2°56.112 6.1517 3.303947 33.121806 -3.020363
2011-03-15 11:59:55 51°33.261 2°56.109 6.1548 3.304672 33.126183 -3.020363
2011-03-15 12:00:54 51°33.276 2°56.06 6.1521 3.306017 33.141139 -3.020363
2011-03-15 12:01:54 51°33.249 2°55.998 6.1466 3.308294 33.175657 -3.020363
2011-03-15 12:02:54 51°33.202 2°55.942 6.1609 3.306328 33.149189 -3.020363
2011-03-15 12:03:55 51°33.186 2°55.883 6.1407 3.299911 33.068681 -3.020363
2011-03-15 12:04:54 51°33.203 2°55.83 6.1238 3.276317 32.829402 -3.020363
2011-03-15 12:05:54 51°33.227 2°55.797 6.1213 3.265555 32.719879 -3.020363
2011-03-15 12:06:55 51°33.249 2°55.775 6.1183 3.263485 32.698712 -3.020363
2011-03-15 12:07:55 51°33.268 2°55.761 6.1195 3.264003 32.705366 -3.020363
2011-03-15 12:08:54 51°33.291 2°55.74 6.1287 3.263692 32.697378 -3.020363
2011-03-15 12:09:55 51°33.301 2°55.683 6.1282 3.263796 32.693988 -3.020363
2011-03-15 12:10:54 51°33.27 2°55.66 6.1307 3.266797 32.728217 -3.020363
2011-03-15 12:11:54 51°33.229 2°55.705 6.1257 3.265141 32.711649 -3.020363
2011-03-15 12:12:55 51°33.179 2°55.778 6.1319 3.261519 32.667806 -3.020363
2011-03-15 12:13:54 51°33.135 2°55.835 6.116 3.253034 32.57182 -3.020363
2011-03-15 12:14:55 51°33.103 2°55.876 6.1129 3.244135 32.487526 -3.020363
2011-03-15 12:15:55 51°33.084 2°55.914 6.0995 3.240099 32.451763 -3.020363
2011-03-15 12:16:55 51°33.071 2°55.949 6.1071 3.234822 32.398607 -3.020363
2011-03-15 12:17:54 51°33.061 2°55.982 6.0977 3.233374 32.384333 -3.020363
2011-03-15 12:18:55 51°33.055 2°56.015 6.0898 3.233374 32.388833 -3.020363
2011-03-15 12:19:54 51°33.054 2°56.04 6.0993 3.231511 32.369962 -3.020363
2011-03-15 12:20:55 51°33.053 2°56.059 6.0996 3.23058 32.356031 -3.020363
2011-03-15 12:21:55 51°33.053 2°56.073 6.0929 3.22851 32.333968 -3.020363
2011-03-15 12:22:54 51°33.055 2°56.083 6.0988 3.228924 32.342155 -3.020363
2011-03-15 12:23:55 51°33.057 2°56.089 6.1093 3.228821 32.334716 -3.020363
2011-03-15 12:24:54 51°33.058 2°56.093 6.1333 3.229545 32.327481 -3.020363
2011-03-15 12:25:55 51°33.06 2°56.094 6.1444 3.230062 32.312578 -3.020363
2011-03-15 12:26:54 51°33.061 2°56.094 6.1561 3.229855 32.300423 -3.020363
2011-03-15 12:27:57 51°33.063 2°56.092 6.1573 3.230786 32.2973 -3.020363
2011-03-15 12:28:56 51°33.065 2°56.091 6.1432 3.229958 32.289924 -3.020363
2011-03-15 12:29:55 51°33.067 2°56.088 6.1274 3.228613 32.291147 -3.020363
2011-03-15 12:30:54 51°33.067 2°56.087 6.1271 3.228096 32.290791 -3.020363
2011-03-15 12:31:55 51°33.067 2°56.085 6.1311 3.226751 32.283949 -3.020363
2011-03-15 12:32:55 51°33.068 2°56.084 6.1223 3.226751 32.284845 -3.020363
2011-03-15 12:33:54 51°33.069 2°56.084 6.1353 3.227372 32.287245 -3.020363
2011-03-15 12:34:55 51°33.069 2°56.084 6.1353 3.227579 32.287746 -3.020363
2011-03-15 12:35:55 51°33.07 2°56.084 6.1373 3.22882 32.297025 -3.020363
2011-03-15 12:36:54 51°33.071 2°56.084 6.1566 3.230165 32.29759 -3.020363
2011-03-15 12:37:54 51°33.071 2°56.084 6.1709 3.2312 32.298301 -3.020363
2011-03-15 12:38:55 51°33.071 2°56.084 6.1843 3.232338 32.300158 -3.020363
2011-03-15 12:39:54 51°33.071 2°56.082 6.1913 3.23389 32.301226 -3.020363
2011-03-15 12:40:55 51°33.071 2°56.081 6.2017 3.234407 32.303371 -3.020363
2011-03-15 12:41:54 51°33.07 2°56.079 6.2164 3.235752 32.304833 -3.020363
2011-03-15 12:42:55 51°33.068 2°56.077 6.2015 3.236063 32.308267 -3.020363
2011-03-15 12:43:55 51°33.067 2°56.075 6.2115 3.235545 32.310596 -3.020363
2011-03-15 12:44:55 51°33.064 2°56.074 6.1938 3.236063 32.311845 -3.020363
2011-03-15 12:45:54 51°33.062 2°56.073 6.1779 3.234718 32.312176 -3.020363
2011-03-15 12:46:54 51°33.059 2°56.071 6.1744 3.233993 32.311322 -3.020363
2011-03-15 12:47:55 51°33.057 2°56.07 6.1695 3.233062 32.305491 -3.020363
2011-03-15 12:48:54 51°33.055 2°56.068 6.1722 3.232545 32.300658 -3.020363
2011-03-15 12:49:54 51°33.053 2°56.067 6.1956 3.231717 32.289705 -3.020363
2011-03-15 12:50:54 51°33.05 2°56.066 6.1952 3.231717 32.278969 -3.020363
2011-03-15 12:51:54 51°33.046 2°56.066 6.2011 3.23151 32.268633 -3.020363
2011-03-15 12:52:55 51°33.042 2°56.066 6.1996 3.23151 32.265952 -3.020363
2011-03-15 12:53:54 51°33.039 2°56.066 6.1989 3.231613 32.263523 -3.020363
2011-03-15 12:54:54 51°33.036 2°56.066 6.2078 3.23182 32.265812 -3.020363
2011-03-15 12:55:54 51°33.032 2°56.065 6.2125 3.232234 32.264136 -3.020363
2011-03-15 12:56:55 51°33.029 2°56.065 6.2212 3.232648 32.260674 -3.020363
2011-03-15 12:57:54 51°33.025 2°56.064 6.2183 3.232958 32.260535 -3.020363
2011-03-15 12:58:54 51°33.021 2°56.064 6.2225 3.232855 32.260283 -3.020363
2011-03-15 12:59:55 51°33.017 2°56.063 6.2219 3.233269 32.260395 -3.020363
2011-03-15 13:00:54 51°33.012 2°56.061 6.2257 3.233476 32.262683 -3.020363
2011-03-15 13:01:54 51°33.006 2°56.062 6.2274 3.2342 32.265332 -3.020363
2011-03-15 13:02:56 51°33.016 2°56.043 6.202 3.234407 32.268512 -3.020363
2011-03-15 13:03:58 51°33.051 2°56.022 6.146 3.233579 32.296896 -3.020363
2011-03-15 13:04:57 51°33.087 2°56.021 6.1407 3.237202 32.380035 -3.020363
2011-03-15 13:05:55 51°33.11 2°56.025 6.1487 3.234615 32.352266 -3.020363
2011-03-15 13:06:54 51°33.112 2°56.02 6.1556 3.233994 32.336415 -3.020363
2011-03-15 13:07:54 51°33.11 2°56.014 6.1656 3.233373 32.322365 -3.020363
2011-03-15 13:08:54 51°33.107 2°56.007 6.1726 3.233166 32.31201 -3.020363
2011-03-15 13:09:54 51°33.099 2°56.005 6.1685 3.232855 32.30499 -3.020363
2011-03-15 13:10:55 51°33.079 2°56.03 6.1745 3.232441 32.300408 -3.020363
2011-03-15 13:11:54 51°33.066 2°56.062 6.1779 3.231821 32.293535 -3.020363
2011-03-15 13:12:54 51°33.054 2°56.096 6.1706 3.232855 32.296934 -3.020363
2011-03-15 13:13:54 51°33.035 2°56.137 6.171 3.233373 32.312509 -3.020363
2011-03-15 13:14:54 51°33.012 2°56.182 6.1645 3.23389 32.322717 -3.020363
2011-03-15 13:15:54 51°32.993 2°56.216 6.1741 3.232959 32.314197 -3.020363
2011-03-15 13:16:54 51°32.977 2°56.241 6.1745 3.230889 32.283226 -3.020363
2011-03-15 13:17:55 51°32.966 2°56.26 6.1724 3.229544 32.266548 -3.020363
2011-03-15 13:18:54 51°32.955 2°56.276 6.1702 3.228302 32.252805 -3.020363
2011-03-15 13:19:56 51°32.969 2°56.264 6.1495 3.227371 32.246073 -3.020363
2011-03-15 13:20:58 51°32.99 2°56.258 6.1252 3.242582 32.445074 -3.020363
2011-03-15 13:21:57 51°32.973 2°56.193 6.1154 3.244962 32.48318 -3.020363
2011-03-15 13:22:55 51°32.988 2°56.021 6.1496 3.242996 32.453265 -3.020363
2011-03-15 13:23:55 51°33.033 2°55.879 6.1701 3.232855 32.315739 -3.020363
2011-03-15 13:24:54 51°33.068 2°55.83 6.2135 3.23358 32.302265 -3.020363
2011-03-15 13:25:55 51°33.092 2°55.806 6.221 3.234924 32.292995 -3.020363
2011-03-15 13:26:55 51°33.108 2°55.794 6.2248 3.23627 32.29893 -3.020363
2011-03-15 13:27:54 51°33.119 2°55.787 6.2273 3.23689 32.301325 -3.020363
2011-03-15 13:28:55 51°33.127 2°55.78 6.2403 3.237304 32.300538 -3.020363
2011-03-15 13:29:54 51°33.133 2°55.772 6.2379 3.237718 32.301539 -3.020363
2011-03-15 13:30:55 51°33.136 2°55.763 6.2459 3.238028 32.302289 -3.020363
2011-03-15 13:31:54 51°33.137 2°55.753 6.2435 3.238546 32.300859 -3.020363
2011-03-15 13:32:54 51°33.137 2°55.741 6.249 3.238132 32.296286 -3.020363
2011-03-15 13:33:54 51°33.134 2°55.731 6.2498 3.239167 32.30504 -3.020363
2011-03-15 13:34:54 51°33.132 2°55.721 6.2529 3.23958 32.30872 -3.020363
2011-03-15 13:35:54 51°33.127 2°55.713 6.2553 3.239891 32.30947 -3.020363
2011-03-15 13:36:54 51°33.124 2°55.704 6.2593 3.240305 32.312256 -3.020363
2011-03-15 13:37:54 51°33.126 2°55.684 6.2616 3.240925 32.311969 -3.020363
2011-03-15 13:38:54 51°33.135 2°55.656 6.2693 3.241339 32.312968 -3.020363
2011-03-15 13:39:54 51°33.153 2°55.635 6.2713 3.242271 32.317003 -3.020363
2011-03-15 13:40:54 51°33.199 2°55.591 6.2513 3.243098 32.328825 -3.020363
2011-03-15 13:41:54 51°33.237 2°55.454 6.2515 3.250032 32.434994 -3.020363
2011-03-15 13:42:55 51°33.213 2°55.238 6.2799 3.247444 32.384887 -3.020363
2011-03-15 13:43:55 51°33.101 2°55.056 6.291 3.249203 32.386421 -3.020363
2011-03-15 13:44:54 51°32.931 2°55.016 6.3033 3.253342 32.415126 -3.020363
2011-03-15 13:45:54 51°32.719 2°54.978 6.2813 3.255309 32.444898 -3.020363
2011-03-15 13:46:54 51°32.498 2°54.988 6.2725 3.249721 32.39124 -3.020363
2011-03-15 13:47:54 51°32.278 2°54.998 6.2755 3.249617 32.399048 -3.020363
2011-03-15 13:48:55 51°32.053 2°55.005 6.2873 3.245478 32.344387 -3.020363
2011-03-15 13:49:55 51°31.834 2°55.004 6.2945 3.240097 32.280518 -3.020363
2011-03-15 13:50:55 51°31.616 2°55.009 6.2952 3.234613 32.204869 -3.020363
2011-03-15 13:51:54 51°31.403 2°55.01 6.2741 3.215264 31.99154 -3.020363
2011-03-15 13:52:55 51°31.18 2°55.012 6.2597 3.194674 31.784921 -3.020363
2011-03-15 13:53:55 51°30.961 2°55.019 6.2231 3.188983 31.741527 -3.020363
2011-03-15 13:54:55 51°30.742 2°55.026 6.2246 3.18857 31.757155 -3.020363
2011-03-15 13:55:55 51°30.522 2°55.029 6.1653 3.189191 31.777185 -3.020363
2011-03-15 13:56:55 51°30.301 2°55.029 6.1338 3.187225 31.795972 -3.020363
2011-03-15 13:57:55 51°30.08 2°55.005 6.0713 3.190537 31.880252 -3.020363
2011-03-15 13:58:54 51°29.863 2°54.942 6.0821 3.20078 32.040746 -3.020363
2011-03-15 13:59:55 51°29.639 2°54.873 6.1822 3.201091 32.03172 -3.020363
2011-03-15 14:00:55 51°29.417 2°54.809 6.238 3.196019 31.852533 -3.020363
2011-03-15 14:01:55 51°29.196 2°54.74 6.2082 3.199227 31.897641 -3.020363
2011-03-15 14:02:54 51°28.979 2°54.677 6.2899 3.201917 31.891152 -3.020363
2011-03-15 14:03:55 51°28.755 2°54.613 6.2997 3.209262 31.913962 -3.020363
2011-03-15 14:04:54 51°28.538 2°54.556 6.2983 3.209159 31.918107 -3.020363
2011-03-15 14:05:55 51°28.314 2°54.498 6.2511 3.208435 31.902206 -3.020363
2011-03-15 14:06:55 51°28.093 2°54.436 6.2885 3.208021 31.930245 -3.020363
2011-03-15 14:07:54 51°27.875 2°54.375 6.2438 3.210918 31.961299 -3.020363
2011-03-15 14:08:55 51°27.648 2°54.312 6.2209 3.21661 32.070109 -3.020363
2011-03-15 14:09:55 51°27.427 2°54.248 6.307 3.210194 31.959494 -3.020363
2011-03-15 14:10:55 51°27.208 2°54.179 6.2447 3.196536 31.781738 -3.020363
2011-03-15 14:11:55 51°26.995 2°54.084 6.3294 3.185259 31.682095 -3.020363
2011-03-15 14:12:55 51°26.889 2°53.782 6.3102 3.182154 31.60253 -3.020363
2011-03-15 14:13:54 51°26.82 2°53.449 6.3008 3.179464 31.577311 -3.020363
2011-03-15 14:14:54 51°26.734 2°53.118 6.3072 3.184534 31.642657 -3.020363
2011-03-15 14:15:54 51°26.647 2°52.785 6.2696 3.19426 31.762816 -3.020363
2011-03-15 14:16:55 51°26.553 2°52.455 6.2879 3.203882 31.885509 -3.020363
2011-03-15 14:17:55 51°26.38 2°52.225 6.3203 3.211332 31.92002 -3.020363
2011-03-15 14:18:55 51°26.205 2°51.994 6.2846 3.217747 31.991533 -3.020363
2011-03-15 14:19:55 51°26.006 2°51.866 6.329 3.219299 32.021871 -3.020363
2011-03-15 14:20:55 51°25.786 2°51.865 6.3323 3.219092 31.985176 -3.020363
2011-03-15 14:21:55 51°25.562 2°51.858 6.3109 3.217747 31.971254 -3.020363
2011-03-15 14:22:54 51°25.342 2°51.843 6.2215 3.209573 31.942942 -3.020363
2011-03-15 14:23:55 51°25.112 2°51.83 6.2104 3.207918 31.952051 -3.020363
2011-03-15 14:24:55 51°24.887 2°51.81 6.1486 3.210608 32.01536 -3.020363
2011-03-15 14:25:55 51°24.66 2°51.795 6.1463 3.201504 31.96525 -3.020363
2011-03-15 14:26:55 51°24.435 2°51.78 6.141 3.196434 31.913623 -3.020363
2011-03-15 14:27:55 51°24.207 2°51.763 6.2097 3.197055 31.93554 -3.020363
2011-03-15 14:28:55 51°23.981 2°51.747 6.2516 3.181948 31.690283 -3.020363
2011-03-15 14:29:54 51°23.758 2°51.729 6.2083 3.177395 31.600758 -3.020363
2011-03-15 14:30:55 51°23.528 2°51.708 6.1904 3.179776 31.675967 -3.020363
2011-03-15 14:31:54 51°23.304 2°51.691 6.2869 3.183397 31.72732 -3.020363
2011-03-15 14:32:54 51°23.076 2°51.673 6.2888 3.181844 31.616556 -3.020363
2011-03-15 14:33:55 51°22.845 2°51.65 6.3718 3.184845 31.66879 -3.020363
2011-03-15 14:34:54 51°22.621 2°51.634 6.3088 3.19012 31.622122 -3.020363
2011-03-15 14:35:55 51°22.393 2°51.628 6.3711 3.188465 31.662325 -3.020363
2011-03-15 14:36:54 51°22.174 2°51.639 6.3958 3.186913 31.606925 -3.020363
2011-03-15 14:37:55 51°21.949 2°51.67 6.3872 3.189189 31.614512 -3.020363
2011-03-15 14:38:55 51°21.724 2°51.663 6.3565 3.186499 31.611955 -3.020363
2011-03-15 14:39:55 51°21.498 2°51.659 6.3446 3.187534 31.619836 -3.020363
2011-03-15 14:40:54 51°21.277 2°51.651 6.3462 3.190638 31.667008 -3.020363
2011-03-15 14:41:55 51°21.051 2°51.689 6.3807 3.187017 31.628961 -3.020363
2011-03-15 14:42:54 51°20.83 2°51.711 6.4377 1.624376 13.326827 -3.020363
2011-03-15 14:43:54 51°20.607 2°51.734 6.437 0.172687 1.287055 -3.020363
2011-03-15 14:44:55 51°20.382 2°51.755 6.4169 0.062144 0.443068 -3.020363
2011-03-15 14:45:54 51°20.164 2°51.779 6.3279 0.051451 0.364647 -3.020363
2011-03-15 14:46:55 51°19.935 2°51.796 6.3362 0.049806 0.352626 -3.020363
2011-03-15 14:47:55 51°19.712 2°51.812 6.4555 0.049395 0.35019 -3.020363
2011-03-15 14:48:54 51°19.493 2°51.828 6.5436 0.049292 0.349478 -3.020363
2011-03-15 14:49:55 51°19.265 2°51.843 6.524 0.049395 0.350251 -3.020363
2011-03-15 14:50:54 51°19.045 2°51.858 6.4507 0.0496 0.351841 -3.020363
2011-03-15 14:51:55 51°18.82 2°51.885 6.4076 0.049806 0.353459 -3.020363
2011-03-15 14:52:54 51°18.602 2°51.919 6.4371 0.049909 0.35418 -3.020363
2011-03-15 14:53:55 51°18.375 2°51.952 6.4001 0.050012 0.355131 -3.020363
2011-03-15 14:54:55 51°18.152 2°51.981 6.3374 0.050114 0.355773 -3.020363
2011-03-15 14:55:55 51°17.928 2°52.02 6.3533 0.050217 0.356353 -3.020363
2011-03-15 14:56:55 51°17.703 2°52.06 6.3327 0.050217 0.356167 -3.020363
2011-03-15 14:57:54 51°17.481 2°52.101 6.3615 0.050114 0.355207 -3.020363
2011-03-15 14:58:55 51°17.25 2°52.139 6.3649 0.050114 0.355022 -3.020363
2011-03-15 14:59:55 51°17.026 2°52.181 6.3505 0.050114 0.354811 -3.020363
2011-03-15 15:00:55 51°16.808 2°52.262 6.329 0.050012 0.353889 -3.020363
2011-03-15 15:01:55 51°16.633 2°52.356 6.3205 0.050012 0.353687 -3.020363
2011-03-15 15:02:54 51°16.504 2°52.43 6.3128 0.050012 0.35353 -3.020363
2011-03-15 15:03:55 51°16.38 2°52.531 6.8837 0.050012 0.353407 -3.020363
2011-03-15 15:04:55 51°16.252 2°52.663 7.0111 0.050012 0.353154 -3.020363
2011-03-15 15:05:55 51°16.143 2°52.847 7.1309 0.049909 0.35227 -3.020363
2011-03-15 15:06:54 51°16.028 2°53.034 7.2569 0.049909 0.352079 -3.020363
2011-03-15 15:07:55 51°15.908 2°53.228 7.4054 0.049909 0.351896 -3.020363
2011-03-15 15:08:54 51°15.789 2°53.414 7.4909 0.049909 0.35174 -3.020363
2011-03-15 15:09:55 51°15.657 2°53.59 7.5702 0.050012 0.352361 -3.020363
2011-03-15 15:10:54 51°15.523 2°53.751 7.7177 0.050012 0.352135 -3.020363
2011-03-15 15:11:55 51°15.385 2°53.922 7.8212 0.050012 0.351909 -3.020363
2011-03-15 15:12:54 51°15.249 2°54.083 7.9855 0.050012 0.351702 -3.020363
2011-03-15 15:13:55 51°15.111 2°54.258 8.0729 0.050012 0.351451 -3.020363
2011-03-15 15:14:54 51°14.974 2°54.419 8.1865 0.050114 0.35188 -3.020363
2011-03-15 15:15:55 51°14.831 2°54.586 8.2846 0.050114 0.351672 -3.020363
2011-03-15 15:16:55 51°14.693 2°54.75 8.3509 0.050114 0.351474 -3.020363
2011-03-15 15:17:55 51°14.553 2°54.91 8.4769 0.050114 0.35131 -3.020363
2011-03-15 15:18:54 51°14.427 2°55.082 8.6237 0.050114 0.351112 -3.020363
2011-03-15 15:19:55 51°14.287 2°55.254 8.7229 0.050217 0.351713 -3.020363
2011-03-15 15:20:58 51°14.144 2°55.394 8.8149 0.050217 0.351609 -3.020363
2011-03-15 15:21:58 51°14.021 2°55.484 8.9003 0.050217 0.351429 -3.020363
2011-03-15 15:22:56 51°13.917 2°55.561 9.0006 0.05032 0.352045 -3.020363
2011-03-15 15:23:55 51°13.811 2°55.646 9.106 0.05032 0.351882 -3.020363
2011-03-15 15:24:58 51°13.736 2°55.746 9.1761 0.05032 0.351719 -3.020363
2011-03-15 15:25:58 51°13.694 2°55.835 9.2419 0.05032 0.351616 -3.020363
2011-03-15 15:26:58 51°13.67 2°55.922 9.2988 0.050423 0.352266 -3.020363